Bettina K — PBEW — position and weather

sailwx.info

Track history (hours):
 
Tides and Currents Weather Stations Pressure Air Temp Water Temp Dewpoint Dewpoint Depression Visibility Wind Speed Wind Dir Waves Ship Positions

Bettina K

Last reported at 2014-Aug-22 16:33 UTC. Time now 2014-Aug-22 19:42 UTC.
Position N 50°19' W 004°10'.

Length 88 m; draft 5.5 m.

Type: Cargo ship. MMSI: 246193000.

Date/timePositionNaut miles runAvg speedWind from/ knotsBaromVisibWave heightAir tempDewpointWater temp
2014-Aug-22 16:33N 50°19' W 004°10'3 3.0
2014-Aug-22 15:33N 50°22' W 004°08'0 0.0
2014-Aug-22 14:33N 50°22' W 004°08'0 0.0
2014-Aug-22 13:33N 50°22' W 004°08'0 0.0
2014-Aug-22 12:33N 50°22' W 004°08'0 0.0
2014-Aug-22 11:33N 50°22' W 004°08'0 0.0
2014-Aug-22 10:33N 50°22' W 004°08'0 0.0
2014-Aug-22 09:33N 50°22' W 004°08'0 0.0
2014-Aug-22 08:33N 50°22' W 004°08'0 0.0
2014-Aug-22 07:33N 50°22' W 004°08'0 0.0
2014-Aug-22 06:33N 50°22' W 004°08'0 0.0
2014-Aug-22 05:33N 50°22' W 004°08'0 0.0
2014-Aug-22 04:33N 50°22' W 004°08'0 0.0
2014-Aug-22 03:33N 50°22' W 004°08'0 0.0
2014-Aug-22 02:33N 50°22' W 004°08'0 0.0
2014-Aug-22 01:33N 50°22' W 004°08'0 0.0
2014-Aug-22 00:33N 50°22' W 004°08'0 0.0
2014-Aug-21 23:33N 50°22' W 004°08'0 0.0
2014-Aug-21 22:33N 50°22' W 004°08'0 0.0
2014-Aug-21 21:33N 50°22' W 004°08'0 0.0
2014-Aug-21 20:33N 50°22' W 004°08'0 0.0
2014-Aug-21 19:33N 50°22' W 004°08'0 0.0
2014-Aug-21 18:33N 50°22' W 004°08'0 0.0
2014-Aug-21 17:33N 50°22' W 004°08'0 0.0
2014-Aug-21 16:33N 50°22' W 004°08'0 0.0
2014-Aug-21 15:33N 50°22' W 004°08'0 0.0
2014-Aug-21 14:33N 50°22' W 004°08'0 0.0
2014-Aug-21 13:33N 50°22' W 004°08'0 0.0
2014-Aug-21 12:33N 50°22' W 004°08'0 0.0
2014-Aug-21 11:33N 50°22' W 004°08'0 0.0
2014-Aug-21 10:33N 50°22' W 004°08'0 0.0
2014-Aug-21 09:33N 50°22' W 004°08'2 1.8
2014-Aug-21 08:33N 50°20' W 004°09'123 5.6
2014-Aug-20 10:26N 52°08' W 005°44'1311.5
2014-Aug-20 09:19N 52°20' W 005°36'99 8.4
2014-Aug-19 21:29N 53°33' W 003°43'1310.1
2014-Aug-19 20:09N 53°33' W 003°20'4 7.1
2014-Aug-19 19:33N 53°31' W 003°14'9 8.2
2014-Aug-19 18:29N 53°26' W 003°01'  
2014-Aug-15 13:25N 53°27' W 003°02'7 8.5
2014-Aug-15 12:33N 53°32' W 003°11'7 5.0
2014-Aug-15 11:06N 53°32' W 003°23'1 1.9
2014-Aug-15 10:33N 53°32' W 003°25'4 3.4
2014-Aug-15 09:28N 53°31' W 003°31'12 3.8
2014-Aug-15 06:16N 53°31' W 003°52'  
Track history (hours):
 
Tides and Currents Weather Stations Pressure Air Temp Water Temp Dewpoint Dewpoint Depression Visibility Wind Speed Wind Dir Waves Ship Positions

Bettina K

Last reported at 2014-Aug-22 16:33 UTC. Time now 2014-Aug-22 19:42 UTC.
Position N 50°19' W 004°10'.

Length 88 m; draft 5.5 m.

Type: Cargo ship. MMSI: 246193000.

Date/timePositionNaut miles runAvg speedWind from/ knotsBaromVisibWave heightAir tempDewpointWater temp
2014-Aug-22 16:33N 50°19' W 004°10'3 3.0
2014-Aug-22 15:33N 50°22' W 004°08'0 0.0
2014-Aug-22 14:33N 50°22' W 004°08'0 0.0
2014-Aug-22 13:33N 50°22' W 004°08'0 0.0
2014-Aug-22 12:33N 50°22' W 004°08'0 0.0
2014-Aug-22 11:33N 50°22' W 004°08'0 0.0
2014-Aug-22 10:33N 50°22' W 004°08'0 0.0
2014-Aug-22 09:33N 50°22' W 004°08'0 0.0
2014-Aug-22 08:33N 50°22' W 004°08'0 0.0
2014-Aug-22 07:33N 50°22' W 004°08'0 0.0
2014-Aug-22 06:33N 50°22' W 004°08'0 0.0
2014-Aug-22 05:33N 50°22' W 004°08'0 0.0
2014-Aug-22 04:33N 50°22' W 004°08'0 0.0
2014-Aug-22 03:33N 50°22' W 004°08'0 0.0
2014-Aug-22 02:33N 50°22' W 004°08'0 0.0
2014-Aug-22 01:33N 50°22' W 004°08'0 0.0
2014-Aug-22 00:33N 50°22' W 004°08'0 0.0
2014-Aug-21 23:33N 50°22' W 004°08'0 0.0
2014-Aug-21 22:33N 50°22' W 004°08'0 0.0
2014-Aug-21 21:33N 50°22' W 004°08'0 0.0
2014-Aug-21 20:33N 50°22' W 004°08'0 0.0
2014-Aug-21 19:33N 50°22' W 004°08'0 0.0
2014-Aug-21 18:33N 50°22' W 004°08'0 0.0
2014-Aug-21 17:33N 50°22' W 004°08'0 0.0
2014-Aug-21 16:33N 50°22' W 004°08'0 0.0
2014-Aug-21 15:33N 50°22' W 004°08'0 0.0
2014-Aug-21 14:33N 50°22' W 004°08'0 0.0
2014-Aug-21 13:33N 50°22' W 004°08'0 0.0
2014-Aug-21 12:33N 50°22' W 004°08'0 0.0
2014-Aug-21 11:33N 50°22' W 004°08'0 0.0
2014-Aug-21 10:33N 50°22' W 004°08'0 0.0
2014-Aug-21 09:33N 50°22' W 004°08'2 1.8
2014-Aug-21 08:33N 50°20' W 004°09'123 5.6
2014-Aug-20 10:26N 52°08' W 005°44'1311.5
2014-Aug-20 09:19N 52°20' W 005°36'99 8.4
2014-Aug-19 21:29N 53°33' W 003°43'1310.1
2014-Aug-19 20:09N 53°33' W 003°20'4 7.1
2014-Aug-19 19:33N 53°31' W 003°14'9 8.2
2014-Aug-19 18:29N 53°26' W 003°01'  
2014-Aug-15 13:25N 53°27' W 003°02'7 8.5
2014-Aug-15 12:33N 53°32' W 003°11'7 5.0
2014-Aug-15 11:06N 53°32' W 003°23'1 1.9
2014-Aug-15 10:33N 53°32' W 003°25'4 3.4
2014-Aug-15 09:28N 53°31' W 003°31'12 3.8
2014-Aug-15 06:16N 53°31' W 003°52'  

Dump ship's entire track history